createdAt,value
2018-03-19T00:01:14.745Z,97666.67
2018-03-19T00:03:44.565Z,97656.11
2018-03-19T00:06:14.351Z,97665.88
2018-03-19T00:08:44.137Z,97665.20
2018-03-19T00:11:14.014Z,97669.72
2018-03-19T00:13:43.809Z,97669.34
2018-03-19T00:16:13.621Z,97664.62
2018-03-19T00:18:43.421Z,97664.96
2018-03-19T00:21:13.226Z,97664.30
2018-03-19T00:23:43.027Z,97663.74
2018-03-19T00:26:12.861Z,97666.84
2018-03-19T00:28:42.705Z,97671.15
2018-03-19T00:31:12.533Z,97675.03
2018-03-19T00:33:42.336Z,97664.97
2018-03-19T00:36:12.309Z,97668.63
2018-03-19T00:38:42.210Z,97669.85
2018-03-19T00:41:12.010Z,97663.54
2018-03-19T00:43:41.843Z,97654.91
2018-03-19T00:46:11.641Z,97653.19
2018-03-19T00:48:41.486Z,97652.23
2018-03-19T00:51:11.277Z,97653.02
2018-03-19T00:53:41.130Z,97654.00
2018-03-19T00:56:10.930Z,97653.08
2018-03-19T00:58:40.724Z,97655.89
2018-03-19T01:01:10.524Z,97653.05
2018-03-19T01:03:40.321Z,97654.92
2018-03-19T01:06:10.182Z,97654.22
2018-03-19T01:08:40.000Z,97647.91
2018-03-19T01:11:09.810Z,97653.25
2018-03-19T01:13:39.622Z,97660.55
2018-03-19T01:16:09.444Z,97653.20
2018-03-19T01:18:39.246Z,97653.33
2018-03-19T01:21:09.048Z,97647.89
2018-03-19T01:23:38.870Z,97641.81
2018-03-19T01:26:08.703Z,97647.48
2018-03-19T01:28:38.510Z,97651.72
2018-03-19T01:31:08.376Z,97645.94
2018-03-19T01:33:38.211Z,97651.79
2018-03-19T01:36:08.022Z,97643.55
2018-03-19T01:38:37.838Z,97647.38
2018-03-19T01:41:07.707Z,97645.00
2018-03-19T01:43:37.639Z,97641.70
2018-03-19T01:46:07.447Z,97643.12
2018-03-19T01:48:37.042Z,97652.14
2018-03-19T01:51:06.900Z,97649.61
2018-03-19T01:53:36.915Z,97647.95
2018-03-19T01:56:06.823Z,97641.02
2018-03-19T01:58:36.645Z,97651.73
2018-03-19T02:01:06.440Z,97643.82
2018-03-19T02:03:36.246Z,97647.10
2018-03-19T02:06:05.764Z,97648.59
2018-03-19T02:08:35.546Z,97654.16
2018-03-19T02:11:05.374Z,97652.87
2018-03-19T02:13:35.191Z,97655.14
2018-03-19T02:16:05.022Z,97651.91
2018-03-19T02:18:34.595Z,97656.50
2018-03-19T02:21:04.405Z,97651.14
2018-03-19T02:23:34.216Z,97658.20
2018-03-19T02:26:04.081Z,97645.99
2018-03-19T02:28:33.898Z,97649.78
2018-03-19T02:31:03.782Z,97650.23
2018-03-19T02:33:33.585Z,97660.55
2018-03-19T02:36:03.401Z,97649.91
2018-03-19T02:38:33.224Z,97652.59
2018-03-19T02:41:02.746Z,97654.34
2018-03-19T02:43:32.602Z,97641.16
2018-03-19T02:46:02.452Z,97654.08
2018-03-19T02:48:32.247Z,97652.01
2018-03-19T02:51:02.108Z,97652.71
2018-03-19T02:53:31.917Z,97661.86
2018-03-19T02:56:01.740Z,97661.53
2018-03-19T02:58:31.621Z,97668.86
2018-03-19T03:01:01.430Z,97663.25
2018-03-19T03:03:31.251Z,97664.95
2018-03-19T03:06:01.159Z,97662.25
2018-03-19T03:08:30.952Z,97663.16
2018-03-19T03:11:00.794Z,97659.49
2018-03-19T03:13:30.601Z,97659.91
2018-03-19T03:16:00.426Z,97654.87
2018-03-19T03:18:30.224Z,97662.05
2018-03-19T03:21:00.039Z,97665.61
2018-03-19T03:23:29.882Z,97665.16
2018-03-19T03:26:03.480Z,97664.00
2018-03-19T03:28:33.042Z,97666.13
2018-03-19T03:31:02.851Z,97665.33
2018-03-19T03:33:33.137Z,97663.16
2018-03-19T03:36:02.972Z,97663.95
2018-03-19T03:38:32.781Z,97668.47
2018-03-19T03:41:02.605Z,97662.45
2018-03-19T03:43:32.440Z,97662.31
2018-03-19T03:46:02.242Z,97660.88
2018-03-19T03:48:32.033Z,97666.34
2018-03-19T03:51:01.861Z,97660.59
2018-03-19T03:53:31.671Z,97664.90
2018-03-19T03:56:01.491Z,97657.09
2018-03-19T03:58:31.349Z,97656.55
2018-03-19T04:01:01.154Z,97659.42
2018-03-19T04:03:30.976Z,97659.22
2018-03-19T04:06:00.788Z,97653.34
2018-03-19T04:08:30.586Z,97660.05
2018-03-19T04:11:00.425Z,97659.67
2018-03-19T04:13:30.242Z,97657.02
2018-03-19T04:16:00.154Z,97649.41
2018-03-19T04:18:29.993Z,97646.79
2018-03-19T04:20:59.852Z,97653.66
2018-03-19T04:23:29.672Z,97655.60
2018-03-19T04:25:59.945Z,97654.73
2018-03-19T04:28:29.761Z,97653.26
2018-03-19T04:30:59.575Z,97649.70
2018-03-19T04:33:29.380Z,97651.88
2018-03-19T04:35:59.190Z,97666.70
2018-03-19T04:38:29.051Z,97658.95
2018-03-19T04:40:58.863Z,97656.33
2018-03-19T04:43:28.689Z,97655.42
2018-03-19T04:45:58.494Z,97651.31
2018-03-19T04:48:28.306Z,97646.86
2018-03-19T04:50:58.107Z,97648.14
2018-03-19T04:53:27.911Z,97658.25
2018-03-19T04:55:57.768Z,97656.41
2018-03-19T04:58:28.045Z,97656.61
2018-03-19T05:00:57.856Z,97658.09
2018-03-19T05:03:27.740Z,97661.74
2018-03-19T05:05:57.597Z,97657.88
2018-03-19T05:08:27.496Z,97658.25
2018-03-19T05:11:01.031Z,97661.86
2018-03-19T05:13:30.551Z,97658.86
2018-03-19T05:16:00.331Z,97664.53
2018-03-19T05:18:30.229Z,97664.69
2018-03-19T05:21:00.069Z,97662.88
2018-03-19T05:23:29.862Z,97666.42
2018-03-19T05:25:59.687Z,97666.98
2018-03-19T05:28:29.509Z,97671.95
2018-03-19T05:30:59.420Z,97679.20
2018-03-19T05:33:29.275Z,97678.20
2018-03-19T05:35:59.151Z,97683.87
2018-03-19T05:38:28.958Z,97682.95
2018-03-19T05:40:58.773Z,97680.91
2018-03-19T05:43:28.790Z,97686.95
2018-03-19T05:45:58.562Z,97684.73
2018-03-19T05:48:28.136Z,97690.58
2018-03-19T05:50:58.030Z,97688.40
2018-03-19T05:53:27.964Z,97690.73
2018-03-19T05:55:57.805Z,97689.00
2018-03-19T05:58:27.603Z,97702.23
2018-03-19T06:00:57.510Z,97697.95
2018-03-19T06:03:27.310Z,97701.70
2018-03-19T06:05:57.209Z,97698.84
2018-03-19T06:08:27.107Z,97696.14
2018-03-19T06:10:56.955Z,97703.80
2018-03-19T06:13:26.760Z,97703.42
2018-03-19T06:16:00.695Z,97697.91
2018-03-19T06:18:31.029Z,97710.28
2018-03-19T06:21:00.829Z,97706.70
2018-03-19T06:23:30.839Z,97710.12
2018-03-19T06:26:00.672Z,97718.03
2018-03-19T06:28:30.543Z,97716.66
2018-03-19T06:31:00.385Z,97726.41
2018-03-19T06:33:30.841Z,97727.72
2018-03-19T06:36:02.659Z,97725.94
2018-03-19T06:38:34.296Z,97730.28
2018-03-19T06:41:04.213Z,97736.63
2018-03-19T06:43:34.046Z,97733.98
2018-03-19T06:46:04.469Z,97740.69
2018-03-19T06:48:34.398Z,97737.44
2018-03-19T06:51:04.247Z,97738.36
2018-03-19T06:53:34.148Z,97735.36
2018-03-19T06:56:03.863Z,97732.92
2018-03-19T06:58:33.721Z,97744.55
2018-03-19T07:01:03.606Z,97744.80
2018-03-19T07:03:33.491Z,97749.52
2018-03-19T07:08:31.939Z,97747.44
2018-03-19T07:11:01.747Z,97750.40
2018-03-19T07:13:31.579Z,97749.27
2018-03-19T07:16:01.434Z,97757.05
2018-03-19T07:18:31.258Z,97760.05
2018-03-19T07:21:01.179Z,97752.00
2018-03-19T07:23:31.034Z,97755.08
2018-03-19T07:26:00.850Z,97758.55
2018-03-19T07:28:30.655Z,97760.74
2018-03-19T07:31:00.219Z,97759.67
2018-03-19T07:33:29.877Z,97760.29
2018-03-19T07:35:59.681Z,97760.67
2018-03-19T07:38:29.705Z,97758.20
2018-03-19T07:40:59.540Z,97762.36
2018-03-19T07:43:29.535Z,97762.35
2018-03-19T07:45:59.388Z,97761.80
2018-03-19T07:48:29.607Z,97766.32
2018-03-19T07:50:59.780Z,97764.69
2018-03-19T07:53:29.585Z,97768.28
2018-03-19T07:55:59.376Z,97770.17
2018-03-19T07:58:29.227Z,97773.15
2018-03-19T08:00:59.064Z,97773.03
2018-03-19T08:03:28.871Z,97770.66
2018-03-19T08:05:58.682Z,97768.38
2018-03-19T08:08:28.741Z,97767.17
2018-03-19T08:10:58.966Z,97785.24
2018-03-19T08:13:28.799Z,97777.56
2018-03-19T08:15:58.702Z,97776.34
2018-03-19T08:18:28.573Z,97778.16
2018-03-19T08:20:58.398Z,97777.34
2018-03-19T08:23:28.211Z,97777.93
2018-03-19T08:25:58.077Z,97770.05
2018-03-19T08:28:28.078Z,97769.34
2018-03-19T08:30:57.909Z,97766.27
2018-03-19T08:33:27.729Z,97765.78
2018-03-19T08:35:57.553Z,97764.80
2018-03-19T08:38:27.374Z,97769.22
2018-03-19T08:40:57.186Z,97771.12
2018-03-19T08:43:27.012Z,97771.56
2018-03-19T08:45:56.817Z,97765.56
2018-03-19T08:48:30.775Z,97771.66
2018-03-19T08:51:00.752Z,97764.76
2018-03-19T08:53:30.588Z,97772.18
2018-03-19T08:56:00.408Z,97769.42
2018-03-19T08:58:30.755Z,97776.99
2018-03-19T09:01:00.560Z,97778.90
2018-03-19T09:03:30.429Z,97783.11
2018-03-19T09:06:00.253Z,97783.05
2018-03-19T09:08:30.151Z,97781.07
2018-03-19T09:10:59.988Z,97779.30
2018-03-19T09:13:29.816Z,97776.30
2018-03-19T09:16:03.704Z,97780.11
2018-03-19T09:18:33.588Z,97781.31
2018-03-19T09:21:03.405Z,97776.35
2018-03-19T09:23:32.800Z,97777.47
2018-03-19T09:26:02.598Z,97789.27
2018-03-19T09:28:32.280Z,97775.63
2018-03-19T09:31:02.132Z,97778.45
2018-03-19T09:33:32.192Z,97781.42
2018-03-19T09:36:02.016Z,97779.67
2018-03-19T09:38:31.920Z,97784.68
2018-03-19T09:41:01.717Z,97787.84
2018-03-19T09:43:31.561Z,97785.56
2018-03-19T09:46:02.189Z,97781.64
2018-03-19T09:48:32.022Z,97782.06
2018-03-19T09:51:01.750Z,97787.80
2018-03-19T09:53:32.280Z,97787.30
2018-03-19T09:56:02.108Z,97785.27
2018-03-19T09:58:31.937Z,97783.83
2018-03-19T10:01:01.742Z,97788.58
2018-03-19T10:03:31.562Z,97788.59
2018-03-19T10:06:01.469Z,97786.64
2018-03-19T10:08:31.310Z,97781.89
2018-03-19T10:11:01.154Z,97786.42
2018-03-19T10:13:31.035Z,97789.00
2018-03-19T10:16:00.845Z,97785.42
2018-03-19T10:18:30.693Z,97787.03
2018-03-19T10:21:00.534Z,97782.75
2018-03-19T10:23:30.324Z,97782.66
2018-03-19T10:26:00.128Z,97781.75
2018-03-19T10:28:29.991Z,97783.52
2018-03-19T10:31:00.590Z,97770.31
2018-03-19T10:33:30.364Z,97769.78
2018-03-19T10:36:00.223Z,97766.84
2018-03-19T10:38:30.333Z,97765.47
2018-03-19T10:41:00.183Z,97759.25
2018-03-19T10:43:30.052Z,97765.58
2018-03-19T10:45:59.910Z,97775.20
2018-03-19T10:48:29.812Z,97779.91
2018-03-19T10:50:59.613Z,97776.07
2018-03-19T10:53:29.448Z,97770.34
2018-03-19T10:55:59.304Z,97769.09
2018-03-19T10:58:29.137Z,97769.84
2018-03-19T11:01:04.462Z,97765.50
2018-03-19T11:03:34.128Z,97760.06
2018-03-19T11:09:19.059Z,97763.42
2018-03-19T11:11:48.875Z,97762.11
2018-03-19T11:14:18.904Z,97764.38
2018-03-19T11:16:48.750Z,97763.05
2018-03-19T11:19:18.599Z,97759.55
2018-03-19T11:21:48.381Z,97754.98
2018-03-19T11:24:18.223Z,97751.52
2018-03-19T11:26:48.080Z,97755.08
2018-03-19T11:29:17.932Z,97751.95
2018-03-19T11:31:51.726Z,97750.34
2018-03-19T11:34:21.524Z,97748.86
2018-03-19T11:36:55.523Z,97749.94
2018-03-19T11:39:25.401Z,97750.06
2018-03-19T11:41:55.219Z,97740.83
2018-03-19T11:44:25.041Z,97741.20
2018-03-19T11:46:54.915Z,97738.29
2018-03-19T11:49:24.705Z,97741.34
2018-03-19T11:51:54.566Z,97738.47
2018-03-19T11:54:28.506Z,97741.92
2018-03-19T11:56:58.059Z,97738.52
2018-03-19T11:59:27.687Z,97733.39
2018-03-19T12:01:57.481Z,97730.83
2018-03-19T12:04:27.337Z,97732.70
2018-03-19T12:06:57.154Z,97724.39
2018-03-19T12:09:27.076Z,97728.44
2018-03-19T12:11:56.880Z,97726.94
2018-03-19T12:14:26.703Z,97723.29
2018-03-19T12:16:56.596Z,97721.35
2018-03-19T12:19:26.274Z,97712.16
2018-03-19T12:21:55.738Z,97721.44
2018-03-19T12:24:25.588Z,97717.53
2018-03-19T12:26:55.597Z,97713.92
2018-03-19T12:29:25.489Z,97713.10
2018-03-19T12:31:55.332Z,97703.94
2018-03-19T12:34:25.143Z,97708.53
2018-03-19T12:36:54.956Z,97707.51
2018-03-19T12:39:24.825Z,97705.65
2018-03-19T12:41:54.803Z,97698.56
2018-03-19T12:44:24.628Z,97710.69
2018-03-19T12:46:54.452Z,97698.43
2018-03-19T12:49:24.264Z,97696.42
2018-03-19T12:51:54.070Z,97698.23
2018-03-19T12:54:23.894Z,97695.20
2018-03-19T12:56:53.744Z,97694.80
2018-03-19T12:59:23.924Z,97697.33
2018-03-19T13:01:53.862Z,97697.88
2018-03-19T13:04:23.713Z,97698.15
2018-03-19T13:06:53.518Z,97704.77
2018-03-19T13:09:23.210Z,97693.72
2018-03-19T13:11:53.167Z,97700.68
2018-03-19T13:14:23.595Z,97704.48
2018-03-19T13:16:53.405Z,97696.52
2018-03-19T13:19:23.208Z,97697.86
2018-03-19T13:21:53.023Z,97695.45
2018-03-19T13:24:22.975Z,97693.78
2018-03-19T13:26:53.004Z,97691.81
2018-03-19T13:29:22.862Z,97694.31
2018-03-19T13:31:52.711Z,97693.42
2018-03-19T13:34:23.585Z,97698.92
2018-03-19T13:36:53.397Z,97701.77
2018-03-19T13:39:23.631Z,97701.11
2018-03-19T13:41:53.508Z,97705.27
2018-03-19T13:44:23.298Z,97696.41
2018-03-19T13:46:53.127Z,97701.67
2018-03-19T13:49:22.752Z,97706.59
2018-03-19T13:51:53.485Z,97706.44
2018-03-19T13:54:23.326Z,97705.16
2018-03-19T13:56:53.136Z,97707.36
2018-03-19T13:59:23.076Z,97708.08
2018-03-19T14:01:53.037Z,97711.39
2018-03-19T14:04:22.886Z,97708.98
2018-03-19T14:06:53.037Z,97713.22
2018-03-19T14:09:22.873Z,97706.45
2018-03-19T14:11:52.893Z,97708.61
2018-03-19T14:14:23.104Z,97706.37
2018-03-19T14:16:53.430Z,97703.61
2018-03-19T14:19:23.257Z,97702.26
2018-03-19T14:21:53.189Z,97695.11
2018-03-19T14:24:23.049Z,97700.72
2018-03-19T14:26:53.019Z,97697.45
2018-03-19T14:29:23.563Z,97696.43
2018-03-19T14:31:53.390Z,97694.36
2018-03-19T14:34:23.212Z,97692.94
2018-03-19T14:36:53.075Z,97695.80
2018-03-19T14:39:22.933Z,97688.25
2018-03-19T14:41:53.114Z,97692.59
2018-03-19T14:44:23.068Z,97694.80
2018-03-19T14:46:52.935Z,97700.79
2018-03-19T14:49:22.771Z,97701.58
2018-03-19T14:51:52.596Z,97701.97
2018-03-19T14:54:22.862Z,97703.80
2018-03-19T14:56:52.764Z,97703.59
2018-03-19T14:59:22.454Z,97702.67
2018-03-19T15:01:56.184Z,97698.75
2018-03-19T15:04:25.788Z,97692.84
2018-03-19T15:06:55.634Z,97692.97
2018-03-19T15:09:25.497Z,97689.70
2018-03-19T15:11:55.325Z,97694.59
2018-03-19T15:14:25.149Z,97694.30
2018-03-19T15:16:54.973Z,97693.38
2018-03-19T15:19:24.527Z,97697.23
2018-03-19T15:21:54.374Z,97698.78
2018-03-19T15:24:24.708Z,97697.77
2018-03-19T15:26:56.148Z,97704.17
2018-03-19T15:29:25.977Z,97708.64
2018-03-19T15:31:55.804Z,97702.41
2018-03-19T15:34:25.708Z,97709.85
2018-03-19T15:36:55.712Z,97717.47
2018-03-19T15:39:25.513Z,97722.53
2018-03-19T15:41:55.354Z,97717.52
2018-03-19T15:44:25.774Z,97718.10
2018-03-19T15:46:55.588Z,97723.72
2018-03-19T15:49:25.462Z,97725.25
2018-03-19T15:51:55.434Z,97730.53
2018-03-19T15:54:25.261Z,97723.36
2018-03-19T15:56:55.109Z,97720.60
2018-03-19T15:59:25.501Z,97720.53
2018-03-19T16:01:55.489Z,97728.81
2018-03-19T16:04:25.363Z,97730.74
2018-03-19T16:06:55.008Z,97730.33
2018-03-19T16:09:24.907Z,97736.16
2018-03-19T16:11:54.712Z,97735.94
2018-03-19T16:14:25.029Z,97738.89
2018-03-19T16:16:55.273Z,97739.13
2018-03-19T16:19:26.788Z,97747.39
2018-03-19T16:21:56.753Z,97751.36
2018-03-19T16:24:26.643Z,97751.13
2018-03-19T16:26:56.498Z,97751.14
2018-03-19T16:29:26.375Z,97755.08
2018-03-19T16:31:56.179Z,97757.50
2018-03-19T16:34:25.980Z,97764.42
2018-03-19T16:36:55.866Z,97761.52
2018-03-19T16:39:26.022Z,97766.72
2018-03-19T16:41:55.862Z,97767.95
2018-03-19T16:44:25.741Z,97772.12
2018-03-19T16:46:55.814Z,97779.94
2018-03-19T16:49:25.706Z,97780.97
2018-03-19T16:51:55.558Z,97791.79
2018-03-19T16:54:25.362Z,97784.14
2018-03-19T16:56:55.200Z,97788.44
2018-03-19T16:59:25.222Z,97788.67
2018-03-19T17:01:55.016Z,97789.41
2018-03-19T17:04:24.824Z,97794.45
2018-03-19T17:06:54.645Z,97797.34
2018-03-19T17:09:25.095Z,97793.56
2018-03-19T17:11:54.720Z,97801.44
2018-03-19T17:14:24.539Z,97805.92
2018-03-19T17:16:54.420Z,97807.50
2018-03-19T17:19:24.320Z,97805.63
2018-03-19T17:21:54.154Z,97810.75
2018-03-19T17:24:23.980Z,97814.17
2018-03-19T17:26:53.866Z,97814.35
2018-03-19T17:29:23.673Z,97814.27
2018-03-19T17:31:53.361Z,97813.91
2018-03-19T17:34:23.211Z,97817.41
2018-03-19T17:36:53.014Z,97816.20
2018-03-19T17:39:22.848Z,97824.42
2018-03-19T17:41:52.761Z,97828.02
2018-03-19T17:44:22.644Z,97832.83
2018-03-19T17:46:52.474Z,97836.49
2018-03-19T17:49:22.326Z,97839.77
2018-03-19T17:51:52.144Z,97846.70
2018-03-19T17:54:21.977Z,97840.84
2018-03-19T17:56:51.833Z,97841.68
2018-03-19T17:59:21.644Z,97844.09
2018-03-19T18:01:51.462Z,97849.52
2018-03-19T18:04:21.349Z,97855.03
2018-03-19T18:06:51.172Z,97858.31
2018-03-19T18:09:21.115Z,97860.06
2018-03-19T18:11:50.701Z,97862.97
2018-03-19T18:14:20.560Z,97867.84
2018-03-19T18:16:50.402Z,97861.77
2018-03-19T18:19:20.332Z,97868.98
2018-03-19T18:21:49.960Z,97870.03
2018-03-19T18:24:19.797Z,97872.88
2018-03-19T18:26:49.641Z,97872.61
2018-03-19T18:29:19.475Z,97873.86
2018-03-19T18:31:49.409Z,97869.34
2018-03-19T18:34:19.358Z,97876.50
2018-03-19T18:36:49.147Z,97875.22
2018-03-19T18:39:19.328Z,97878.86
2018-03-19T18:41:49.154Z,97880.77
2018-03-19T18:44:18.968Z,97880.08
2018-03-19T18:46:48.777Z,97881.05
2018-03-19T18:49:18.584Z,97879.59
2018-03-19T18:51:48.488Z,97882.23
2018-03-19T18:54:18.328Z,97883.51
2018-03-19T18:56:48.176Z,97886.06
2018-03-19T18:59:18.012Z,97889.61
2018-03-19T19:01:47.843Z,97891.74
2018-03-19T19:04:17.707Z,97887.00
2018-03-19T19:06:47.760Z,97887.64
2018-03-19T19:09:17.585Z,97885.61
2018-03-19T19:11:48.196Z,97894.75
2018-03-19T19:14:18.034Z,97887.84
2018-03-19T19:16:47.864Z,97893.37
2018-03-19T19:19:17.676Z,97896.61
2018-03-19T19:21:48.136Z,97896.82
2018-03-19T19:24:17.706Z,97898.59
2018-03-19T19:26:47.558Z,97904.02
2018-03-19T19:29:17.216Z,97896.08
2018-03-19T19:31:47.053Z,97894.06
2018-03-19T19:34:17.098Z,97897.89
2018-03-19T19:36:46.937Z,97903.82
2018-03-19T19:39:16.750Z,97899.91
2018-03-19T19:41:46.585Z,97895.91
2018-03-19T19:44:16.383Z,97902.14
2018-03-19T19:46:47.139Z,97902.09
2018-03-19T19:49:16.972Z,97904.92
2018-03-19T19:51:46.787Z,97908.42
2018-03-19T19:54:16.625Z,97902.79
2018-03-19T19:56:46.453Z,97912.75
2018-03-19T19:59:16.611Z,97903.23
2018-03-19T20:01:46.423Z,97898.88
2018-03-19T20:04:16.293Z,97897.23
2018-03-19T20:06:46.118Z,97894.27
2018-03-19T20:09:16.086Z,97896.78
2018-03-19T20:11:46.487Z,97892.55
2018-03-19T20:14:16.321Z,97893.61
2018-03-19T20:16:46.143Z,97897.36
2018-03-19T20:19:15.944Z,97893.56
2018-03-19T20:21:45.753Z,97896.45
2018-03-19T20:24:15.572Z,97890.93
2018-03-19T20:26:45.414Z,97898.30
2018-03-19T20:29:15.288Z,97887.34
2018-03-19T20:31:45.129Z,97895.01
2018-03-19T20:34:14.946Z,97900.97
2018-03-19T20:36:44.735Z,97897.23
2018-03-19T20:39:14.546Z,97898.02
2018-03-19T20:41:44.434Z,97900.81
2018-03-19T20:44:14.310Z,97892.83
2018-03-19T20:46:44.113Z,97891.05
2018-03-19T20:49:13.930Z,97894.88
2018-03-19T20:51:43.789Z,97891.02
2018-03-19T20:54:13.630Z,97891.75
2018-03-19T20:56:43.960Z,97892.57
2018-03-19T20:59:14.708Z,97890.80
2018-03-19T21:01:44.737Z,97893.52
2018-03-19T21:04:14.556Z,97888.25
2018-03-19T21:06:44.386Z,97892.25
2018-03-19T21:09:14.543Z,97889.66
2018-03-19T21:11:44.609Z,97887.52
2018-03-19T21:14:14.444Z,97890.60
2018-03-19T21:16:44.437Z,97884.84
2018-03-19T21:19:14.293Z,97888.46
2018-03-19T21:21:44.194Z,97883.09
2018-03-19T21:24:13.990Z,97886.84
2018-03-19T21:26:51.576Z,97887.09
2018-03-19T21:29:21.931Z,97883.59
2018-03-19T21:31:51.748Z,97892.24
2018-03-19T21:34:21.610Z,97891.01
2018-03-19T21:36:51.470Z,97893.11
2018-03-19T21:39:21.292Z,97890.42
2018-03-19T21:41:51.161Z,97894.88
2018-03-19T21:44:20.986Z,97894.34
2018-03-19T21:46:50.639Z,97900.64
2018-03-19T21:49:20.431Z,97895.45
2018-03-19T21:51:50.250Z,97890.23
2018-03-19T21:54:26.674Z,97898.92
2018-03-19T21:57:06.593Z,97897.97
2018-03-19T21:59:36.852Z,97898.46
2018-03-19T22:02:18.452Z,97897.38
2018-03-19T22:04:52.333Z,97901.22
2018-03-19T22:07:22.298Z,97890.80
2018-03-19T22:09:52.300Z,97895.05
2018-03-19T22:12:22.232Z,97895.83
2018-03-19T22:14:52.112Z,97896.70
2018-03-19T22:17:21.919Z,97894.88
2018-03-19T22:19:51.820Z,97893.93
2018-03-19T22:22:21.788Z,97897.02
2018-03-19T22:24:51.589Z,97895.66
2018-03-19T22:27:21.441Z,97890.89
2018-03-19T22:29:51.353Z,97890.23
2018-03-19T22:32:21.258Z,97888.51
2018-03-19T22:34:51.056Z,97890.52
2018-03-19T22:37:20.912Z,97879.33
2018-03-19T22:39:50.730Z,97891.19
2018-03-19T22:42:19.987Z,97888.92
2018-03-19T22:44:49.608Z,97888.09
2018-03-19T22:47:19.249Z,97885.29
2018-03-19T22:49:49.070Z,97881.84
2018-03-19T22:52:18.947Z,97884.19
2018-03-19T22:54:49.434Z,97885.09
2018-03-19T22:57:19.554Z,97882.62
2018-03-19T22:59:49.357Z,97882.16
2018-03-19T23:02:19.281Z,97882.20
2018-03-19T23:05:00.410Z,97880.23
2018-03-19T23:07:30.077Z,97877.02
2018-03-19T23:09:59.962Z,97873.16
2018-03-19T23:12:29.970Z,97872.08
2018-03-19T23:14:59.976Z,97867.22
2018-03-19T23:17:29.769Z,97859.03
2018-03-19T23:19:59.609Z,97862.89
2018-03-19T23:22:29.208Z,97866.11
2018-03-19T23:24:59.015Z,97869.36
2018-03-19T23:27:28.845Z,97864.47
2018-03-19T23:29:58.650Z,97861.87
2018-03-19T23:32:28.273Z,97866.55
2018-03-19T23:34:58.092Z,97864.38
2018-03-19T23:37:27.932Z,97865.59
2018-03-19T23:39:57.804Z,97864.14
2018-03-19T23:42:27.607Z,97866.48
2018-03-19T23:44:57.505Z,97870.09
2018-03-19T23:47:27.317Z,97865.77
2018-03-19T23:49:57.159Z,97871.46
2018-03-19T23:52:26.978Z,97869.34
2018-03-19T23:54:56.793Z,97878.80
2018-03-19T23:57:26.593Z,97873.13
2018-03-19T23:59:56.409Z,97877.91
